sensor_id;sensor_type;location;lat;lon;timestamp;P1;durP1;ratioP1;P2;durP2;ratioP2
23159;SDS011;11748;50.844;4.396;2024-02-23T00:00:03;3.67;;;1.20;;
23159;SDS011;11748;50.844;4.396;2024-02-23T00:02:30;4.53;;;1.40;;
23159;SDS011;11748;50.844;4.396;2024-02-23T00:04:56;5.47;;;1.38;;
23159;SDS011;11748;50.844;4.396;2024-02-23T00:07:22;5.30;;;1.35;;
23159;SDS011;11748;50.844;4.396;2024-02-23T00:09:48;7.78;;;1.50;;
23159;SDS011;11748;50.844;4.396;2024-02-23T00:12:20;3.88;;;0.85;;
23159;SDS011;11748;50.844;4.396;2024-02-23T00:14:47;2.40;;;1.13;;
23159;SDS011;11748;50.844;4.396;2024-02-23T00:17:14;5.43;;;1.05;;
23159;SDS011;11748;50.844;4.396;2024-02-23T00:19:45;4.68;;;1.00;;
23159;SDS011;11748;50.844;4.396;2024-02-23T00:22:13;6.25;;;0.70;;
23159;SDS011;11748;50.844;4.396;2024-02-23T00:24:39;3.78;;;0.82;;
23159;SDS011;11748;50.844;4.396;2024-02-23T00:27:05;1.73;;;0.80;;
23159;SDS011;11748;50.844;4.396;2024-02-23T00:29:32;3.58;;;0.75;;
23159;SDS011;11748;50.844;4.396;2024-02-23T00:31:58;3.40;;;1.25;;
23159;SDS011;11748;50.844;4.396;2024-02-23T00:34:24;5.10;;;1.00;;
23159;SDS011;11748;50.844;4.396;2024-02-23T00:36:50;4.60;;;1.13;;
23159;SDS011;11748;50.844;4.396;2024-02-23T00:39:16;4.68;;;1.27;;
23159;SDS011;11748;50.844;4.396;2024-02-23T00:41:41;4.30;;;1.27;;
23159;SDS011;11748;50.844;4.396;2024-02-23T00:44:08;4.13;;;1.10;;
23159;SDS011;11748;50.844;4.396;2024-02-23T00:46:35;3.72;;;1.20;;
23159;SDS011;11748;50.844;4.396;2024-02-23T00:49:00;5.10;;;1.02;;
23159;SDS011;11748;50.844;4.396;2024-02-23T00:51:38;4.72;;;1.35;;
23159;SDS011;11748;50.844;4.396;2024-02-23T00:54:04;3.03;;;1.10;;
23159;SDS011;11748;50.844;4.396;2024-02-23T00:56:37;4.38;;;0.80;;
23159;SDS011;11748;50.844;4.396;2024-02-23T00:59:10;3.78;;;1.08;;
23159;SDS011;11748;50.844;4.396;2024-02-23T01:01:40;4.70;;;0.85;;
23159;SDS011;11748;50.844;4.396;2024-02-23T01:04:09;4.10;;;0.70;;
23159;SDS011;11748;50.844;4.396;2024-02-23T01:06:35;4.95;;;0.98;;
23159;SDS011;11748;50.844;4.396;2024-02-23T01:09:01;6.70;;;1.20;;
23159;SDS011;11748;50.844;4.396;2024-02-23T01:11:29;3.35;;;0.98;;
23159;SDS011;11748;50.844;4.396;2024-02-23T01:13:57;4.65;;;0.93;;
23159;SDS011;11748;50.844;4.396;2024-02-23T01:16:24;2.65;;;0.75;;
23159;SDS011;11748;50.844;4.396;2024-02-23T01:18:50;4.15;;;1.10;;
23159;SDS011;11748;50.844;4.396;2024-02-23T01:21:15;3.92;;;0.80;;
23159;SDS011;11748;50.844;4.396;2024-02-23T01:23:41;4.22;;;1.15;;
23159;SDS011;11748;50.844;4.396;2024-02-23T01:26:07;2.38;;;0.93;;
23159;SDS011;11748;50.844;4.396;2024-02-23T01:28:32;2.63;;;0.80;;
23159;SDS011;11748;50.844;4.396;2024-02-23T01:30:58;4.03;;;0.95;;
23159;SDS011;11748;50.844;4.396;2024-02-23T01:33:24;2.97;;;0.75;;
23159;SDS011;11748;50.844;4.396;2024-02-23T01:35:50;5.38;;;0.90;;
23159;SDS011;11748;50.844;4.396;2024-02-23T01:38:18;3.20;;;0.90;;
23159;SDS011;11748;50.844;4.396;2024-02-23T01:40:47;3.78;;;0.90;;
23159;SDS011;11748;50.844;4.396;2024-02-23T01:43:13;3.45;;;0.90;;
23159;SDS011;11748;50.844;4.396;2024-02-23T01:45:39;3.35;;;1.08;;
23159;SDS011;11748;50.844;4.396;2024-02-23T01:48:04;3.95;;;1.10;;
23159;SDS011;11748;50.844;4.396;2024-02-23T01:50:34;4.25;;;0.77;;
23159;SDS011;11748;50.844;4.396;2024-02-23T01:53:01;3.72;;;1.13;;
23159;SDS011;11748;50.844;4.396;2024-02-23T01:55:28;3.88;;;0.98;;
23159;SDS011;11748;50.844;4.396;2024-02-23T01:57:56;2.00;;;0.75;;
23159;SDS011;11748;50.844;4.396;2024-02-23T02:00:21;5.13;;;1.30;;
23159;SDS011;11748;50.844;4.396;2024-02-23T02:05:27;5.35;;;1.13;;
23159;SDS011;11748;50.844;4.396;2024-02-23T02:07:53;4.70;;;0.85;;
23159;SDS011;11748;50.844;4.396;2024-02-23T02:10:26;6.32;;;1.58;;
23159;SDS011;11748;50.844;4.396;2024-02-23T02:12:54;6.20;;;1.40;;
23159;SDS011;11748;50.844;4.396;2024-02-23T02:15:20;5.53;;;1.35;;
23159;SDS011;11748;50.844;4.396;2024-02-23T02:17:47;11.40;;;1.80;;
23159;SDS011;11748;50.844;4.396;2024-02-23T02:20:14;7.75;;;1.77;;
23159;SDS011;11748;50.844;4.396;2024-02-23T02:22:44;5.45;;;1.23;;
23159;SDS011;11748;50.844;4.396;2024-02-23T02:25:13;7.82;;;1.90;;
23159;SDS011;11748;50.844;4.396;2024-02-23T02:27:43;7.82;;;1.63;;
23159;SDS011;11748;50.844;4.396;2024-02-23T02:30:11;6.03;;;1.58;;
23159;SDS011;11748;50.844;4.396;2024-02-23T02:32:39;3.33;;;1.30;;
23159;SDS011;11748;50.844;4.396;2024-02-23T02:35:06;10.35;;;1.67;;
23159;SDS011;11748;50.844;4.396;2024-02-23T02:37:38;7.57;;;1.50;;
23159;SDS011;11748;50.844;4.396;2024-02-23T02:40:04;7.22;;;1.38;;
23159;SDS011;11748;50.844;4.396;2024-02-23T02:42:35;7.88;;;2.17;;
23159;SDS011;11748;50.844;4.396;2024-02-23T02:45:02;5.47;;;1.35;;
23159;SDS011;11748;50.844;4.396;2024-02-23T02:47:29;12.35;;;2.35;;
23159;SDS011;11748;50.844;4.396;2024-02-23T02:50:00;7.68;;;2.10;;
23159;SDS011;11748;50.844;4.396;2024-02-23T02:52:26;8.23;;;2.20;;
23159;SDS011;11748;50.844;4.396;2024-02-23T02:54:56;6.00;;;1.90;;
23159;SDS011;11748;50.844;4.396;2024-02-23T02:57:23;6.22;;;2.15;;
23159;SDS011;11748;50.844;4.396;2024-02-23T02:59:48;9.68;;;2.80;;
23159;SDS011;11748;50.844;4.396;2024-02-23T03:02:21;6.78;;;2.10;;
23159;SDS011;11748;50.844;4.396;2024-02-23T03:07:20;7.40;;;1.98;;
23159;SDS011;11748;50.844;4.396;2024-02-23T03:09:48;9.98;;;2.33;;
23159;SDS011;11748;50.844;4.396;2024-02-23T03:12:17;10.57;;;1.90;;
23159;SDS011;11748;50.844;4.396;2024-02-23T03:14:43;7.68;;;2.13;;
23159;SDS011;11748;50.844;4.396;2024-02-23T03:17:09;7.38;;;2.00;;
23159;SDS011;11748;50.844;4.396;2024-02-23T03:19:35;8.38;;;2.45;;
23159;SDS011;11748;50.844;4.396;2024-02-23T03:22:01;8.10;;;1.75;;
23159;SDS011;11748;50.844;4.396;2024-02-23T03:24:27;5.95;;;1.90;;
23159;SDS011;11748;50.844;4.396;2024-02-23T03:26:53;4.63;;;1.73;;
23159;SDS011;11748;50.844;4.396;2024-02-23T03:29:19;5.93;;;2.05;;
23159;SDS011;11748;50.844;4.396;2024-02-23T03:31:45;8.10;;;2.40;;
23159;SDS011;11748;50.844;4.396;2024-02-23T03:34:10;6.85;;;2.05;;
23159;SDS011;11748;50.844;4.396;2024-02-23T03:36:38;7.18;;;2.42;;
23159;SDS011;11748;50.844;4.396;2024-02-23T03:39:03;6.97;;;2.00;;
23159;SDS011;11748;50.844;4.396;2024-02-23T03:41:29;12.57;;;3.00;;
23159;SDS011;11748;50.844;4.396;2024-02-23T03:43:55;8.93;;;2.38;;
23159;SDS011;11748;50.844;4.396;2024-02-23T03:46:20;8.80;;;2.60;;
23159;SDS011;11748;50.844;4.396;2024-02-23T03:48:46;6.35;;;1.92;;
23159;SDS011;11748;50.844;4.396;2024-02-23T03:51:12;9.40;;;2.67;;
23159;SDS011;11748;50.844;4.396;2024-02-23T03:53:38;5.38;;;2.30;;
23159;SDS011;11748;50.844;4.396;2024-02-23T03:56:03;6.93;;;2.72;;
23159;SDS011;11748;50.844;4.396;2024-02-23T03:58:30;8.05;;;2.30;;
23159;SDS011;11748;50.844;4.396;2024-02-23T04:00:55;6.55;;;2.08;;
23159;SDS011;11748;50.844;4.396;2024-02-23T04:03:21;8.18;;;2.55;;
23159;SDS011;11748;50.844;4.396;2024-02-23T04:05:46;6.60;;;1.70;;
23159;SDS011;11748;50.844;4.396;2024-02-23T04:08:12;10.27;;;2.20;;
23159;SDS011;11748;50.844;4.396;2024-02-23T04:10:38;8.00;;;2.10;;
23159;SDS011;11748;50.844;4.396;2024-02-23T04:13:04;5.40;;;1.92;;
23159;SDS011;11748;50.844;4.396;2024-02-23T04:15:32;7.60;;;2.00;;
23159;SDS011;11748;50.844;4.396;2024-02-23T04:17:58;8.18;;;2.25;;
23159;SDS011;11748;50.844;4.396;2024-02-23T04:20:23;10.48;;;2.10;;
23159;SDS011;11748;50.844;4.396;2024-02-23T04:22:50;7.30;;;2.08;;
23159;SDS011;11748;50.844;4.396;2024-02-23T04:25:15;6.57;;;1.52;;
23159;SDS011;11748;50.844;4.396;2024-02-23T04:27:41;11.15;;;2.30;;
23159;SDS011;11748;50.844;4.396;2024-02-23T04:30:08;5.43;;;1.83;;
23159;SDS011;11748;50.844;4.396;2024-02-23T04:32:38;5.18;;;1.60;;
23159;SDS011;11748;50.844;4.396;2024-02-23T04:35:04;7.13;;;2.00;;
23159;SDS011;11748;50.844;4.396;2024-02-23T04:37:30;7.53;;;1.90;;
23159;SDS011;11748;50.844;4.396;2024-02-23T04:39:56;6.72;;;2.22;;
23159;SDS011;11748;50.844;4.396;2024-02-23T04:42:22;6.63;;;1.80;;
23159;SDS011;11748;50.844;4.396;2024-02-23T04:44:48;10.15;;;2.05;;
23159;SDS011;11748;50.844;4.396;2024-02-23T04:47:14;5.30;;;2.35;;
23159;SDS011;11748;50.844;4.396;2024-02-23T04:49:40;3.67;;;1.95;;
23159;SDS011;11748;50.844;4.396;2024-02-23T04:52:07;7.88;;;2.38;;
23159;SDS011;11748;50.844;4.396;2024-02-23T04:54:34;6.90;;;1.92;;
23159;SDS011;11748;50.844;4.396;2024-02-23T04:57:01;7.45;;;2.60;;
23159;SDS011;11748;50.844;4.396;2024-02-23T04:59:27;5.88;;;2.08;;
23159;SDS011;11748;50.844;4.396;2024-02-23T05:01:57;6.97;;;1.85;;
23159;SDS011;11748;50.844;4.396;2024-02-23T05:04:24;9.52;;;2.38;;
23159;SDS011;11748;50.844;4.396;2024-02-23T05:06:53;8.43;;;1.92;;
23159;SDS011;11748;50.844;4.396;2024-02-23T05:09:20;8.10;;;1.60;;
23159;SDS011;11748;50.844;4.396;2024-02-23T05:11:47;5.22;;;1.55;;
23159;SDS011;11748;50.844;4.396;2024-02-23T05:14:15;9.35;;;1.63;;
23159;SDS011;11748;50.844;4.396;2024-02-23T05:16:41;4.82;;;1.33;;
23159;SDS011;11748;50.844;4.396;2024-02-23T05:19:07;9.98;;;1.67;;
23159;SDS011;11748;50.844;4.396;2024-02-23T05:21:33;8.23;;;1.63;;
23159;SDS011;11748;50.844;4.396;2024-02-23T05:23:59;9.93;;;1.83;;
23159;SDS011;11748;50.844;4.396;2024-02-23T05:26:26;9.48;;;2.03;;
23159;SDS011;11748;50.844;4.396;2024-02-23T05:28:53;5.30;;;1.67;;
23159;SDS011;11748;50.844;4.396;2024-02-23T05:31:21;10.13;;;1.70;;
23159;SDS011;11748;50.844;4.396;2024-02-23T05:34:19;5.65;;;1.67;;
23159;SDS011;11748;50.844;4.396;2024-02-23T05:36:46;8.88;;;1.55;;
23159;SDS011;11748;50.844;4.396;2024-02-23T05:39:13;5.75;;;1.30;;
23159;SDS011;11748;50.844;4.396;2024-02-23T05:41:48;6.00;;;1.38;;
23159;SDS011;11748;50.844;4.396;2024-02-23T05:46:46;7.70;;;1.75;;
23159;SDS011;11748;50.844;4.396;2024-02-23T05:49:14;7.65;;;1.83;;
23159;SDS011;11748;50.844;4.396;2024-02-23T05:51:46;4.95;;;1.45;;
23159;SDS011;11748;50.844;4.396;2024-02-23T05:54:11;6.72;;;1.40;;
23159;SDS011;11748;50.844;4.396;2024-02-23T05:56:37;9.45;;;1.88;;
23159;SDS011;11748;50.844;4.396;2024-02-23T05:59:04;5.57;;;1.40;;
23159;SDS011;11748;50.844;4.396;2024-02-23T06:04:23;9.60;;;1.92;;
23159;SDS011;11748;50.844;4.396;2024-02-23T06:06:52;5.70;;;1.33;;
23159;SDS011;11748;50.844;4.396;2024-02-23T06:09:18;9.13;;;1.73;;
23159;SDS011;11748;50.844;4.396;2024-02-23T06:11:44;9.73;;;1.50;;
23159;SDS011;11748;50.844;4.396;2024-02-23T06:14:11;5.00;;;1.38;;
23159;SDS011;11748;50.844;4.396;2024-02-23T06:16:36;6.40;;;1.27;;
23159;SDS011;11748;50.844;4.396;2024-02-23T06:19:03;7.70;;;1.50;;
23159;SDS011;11748;50.844;4.396;2024-02-23T06:21:30;9.27;;;1.75;;
23159;SDS011;11748;50.844;4.396;2024-02-23T06:23:58;4.85;;;1.50;;
23159;SDS011;11748;50.844;4.396;2024-02-23T06:26:26;9.43;;;1.30;;
23159;SDS011;11748;50.844;4.396;2024-02-23T06:28:52;10.27;;;2.03;;
23159;SDS011;11748;50.844;4.396;2024-02-23T06:31:17;8.50;;;1.85;;
23159;SDS011;11748;50.844;4.396;2024-02-23T06:36:14;5.65;;;1.50;;
23159;SDS011;11748;50.844;4.396;2024-02-23T06:38:41;6.50;;;1.83;;
23159;SDS011;11748;50.844;4.396;2024-02-23T06:41:07;9.07;;;1.73;;
23159;SDS011;11748;50.844;4.396;2024-02-23T06:43:36;6.47;;;2.13;;
23159;SDS011;11748;50.844;4.396;2024-02-23T06:46:07;6.97;;;1.30;;
23159;SDS011;11748;50.844;4.396;2024-02-23T06:48:34;11.00;;;2.22;;
23159;SDS011;11748;50.844;4.396;2024-02-23T06:51:00;10.95;;;2.45;;
23159;SDS011;11748;50.844;4.396;2024-02-23T06:53:27;7.82;;;1.77;;
23159;SDS011;11748;50.844;4.396;2024-02-23T06:55:52;7.43;;;1.73;;
23159;SDS011;11748;50.844;4.396;2024-02-23T06:58:18;8.45;;;1.90;;
23159;SDS011;11748;50.844;4.396;2024-02-23T07:00:43;9.57;;;2.13;;
23159;SDS011;11748;50.844;4.396;2024-02-23T07:03:09;12.25;;;2.10;;
23159;SDS011;11748;50.844;4.396;2024-02-23T07:05:35;7.32;;;1.52;;
23159;SDS011;11748;50.844;4.396;2024-02-23T07:08:01;9.65;;;2.15;;
23159;SDS011;11748;50.844;4.396;2024-02-23T07:10:27;7.07;;;1.75;;
23159;SDS011;11748;50.844;4.396;2024-02-23T07:12:53;6.10;;;1.58;;
23159;SDS011;11748;50.844;4.396;2024-02-23T07:15:20;7.18;;;1.73;;
23159;SDS011;11748;50.844;4.396;2024-02-23T07:17:46;6.60;;;1.50;;
23159;SDS011;11748;50.844;4.396;2024-02-23T07:20:12;10.02;;;2.10;;
23159;SDS011;11748;50.844;4.396;2024-02-23T07:22:38;8.18;;;1.63;;
23159;SDS011;11748;50.844;4.396;2024-02-23T07:25:09;5.35;;;1.20;;
23159;SDS011;11748;50.844;4.396;2024-02-23T07:27:35;9.70;;;1.80;;
23159;SDS011;11748;50.844;4.396;2024-02-23T07:30:02;9.27;;;1.80;;
23159;SDS011;11748;50.844;4.396;2024-02-23T07:32:29;10.02;;;1.80;;
23159;SDS011;11748;50.844;4.396;2024-02-23T07:34:55;6.13;;;1.50;;
23159;SDS011;11748;50.844;4.396;2024-02-23T07:37:21;8.52;;;1.80;;
23159;SDS011;11748;50.844;4.396;2024-02-23T07:39:47;11.52;;;1.75;;
23159;SDS011;11748;50.844;4.396;2024-02-23T07:42:13;6.85;;;1.35;;
23159;SDS011;11748;50.844;4.396;2024-02-23T07:44:43;8.73;;;1.85;;
23159;SDS011;11748;50.844;4.396;2024-02-23T07:47:09;8.93;;;1.63;;
23159;SDS011;11748;50.844;4.396;2024-02-23T07:49:36;7.05;;;1.67;;
23159;SDS011;11748;50.844;4.396;2024-02-23T07:52:02;8.30;;;1.77;;
23159;SDS011;11748;50.844;4.396;2024-02-23T07:54:28;8.98;;;1.95;;
23159;SDS011;11748;50.844;4.396;2024-02-23T07:56:53;6.28;;;1.50;;
23159;SDS011;11748;50.844;4.396;2024-02-23T07:59:19;12.88;;;1.70;;
23159;SDS011;11748;50.844;4.396;2024-02-23T08:01:45;9.40;;;1.90;;
23159;SDS011;11748;50.844;4.396;2024-02-23T08:04:12;8.65;;;1.88;;
23159;SDS011;11748;50.844;4.396;2024-02-23T08:06:38;7.47;;;2.10;;
23159;SDS011;11748;50.844;4.396;2024-02-23T08:09:04;7.07;;;1.73;;
23159;SDS011;11748;50.844;4.396;2024-02-23T08:11:32;8.82;;;1.90;;
23159;SDS011;11748;50.844;4.396;2024-02-23T08:13:58;7.90;;;1.75;;
23159;SDS011;11748;50.844;4.396;2024-02-23T08:16:23;6.57;;;1.77;;
23159;SDS011;11748;50.844;4.396;2024-02-23T08:18:49;9.85;;;1.67;;
23159;SDS011;11748;50.844;4.396;2024-02-23T08:21:15;7.10;;;1.52;;
23159;SDS011;11748;50.844;4.396;2024-02-23T08:23:40;7.80;;;1.50;;
23159;SDS011;11748;50.844;4.396;2024-02-23T08:26:08;7.80;;;1.55;;
23159;SDS011;11748;50.844;4.396;2024-02-23T08:28:36;5.47;;;1.08;;
23159;SDS011;11748;50.844;4.396;2024-02-23T08:31:01;10.90;;;1.83;;
23159;SDS011;11748;50.844;4.396;2024-02-23T08:33:27;8.52;;;1.75;;
23159;SDS011;11748;50.844;4.396;2024-02-23T08:35:53;5.30;;;1.50;;
23159;SDS011;11748;50.844;4.396;2024-02-23T08:38:19;5.80;;;1.42;;
23159;SDS011;11748;50.844;4.396;2024-02-23T08:40:45;7.78;;;1.58;;
23159;SDS011;11748;50.844;4.396;2024-02-23T08:43:13;4.85;;;1.35;;
23159;SDS011;11748;50.844;4.396;2024-02-23T08:45:40;6.45;;;1.65;;
23159;SDS011;11748;50.844;4.396;2024-02-23T08:48:07;6.43;;;1.60;;
23159;SDS011;11748;50.844;4.396;2024-02-23T08:50:33;7.40;;;1.65;;
23159;SDS011;11748;50.844;4.396;2024-02-23T08:52:59;6.82;;;1.75;;
23159;SDS011;11748;50.844;4.396;2024-02-23T08:55:25;7.68;;;1.92;;
23159;SDS011;11748;50.844;4.396;2024-02-23T08:57:50;7.90;;;1.77;;
23159;SDS011;11748;50.844;4.396;2024-02-23T09:00:16;5.75;;;1.80;;
23159;SDS011;11748;50.844;4.396;2024-02-23T09:02:42;8.07;;;1.70;;
23159;SDS011;11748;50.844;4.396;2024-02-23T09:05:08;7.15;;;1.92;;
23159;SDS011;11748;50.844;4.396;2024-02-23T09:07:34;7.72;;;1.75;;
23159;SDS011;11748;50.844;4.396;2024-02-23T09:10:03;6.95;;;1.40;;
23159;SDS011;11748;50.844;4.396;2024-02-23T09:12:40;9.48;;;1.95;;
23159;SDS011;11748;50.844;4.396;2024-02-23T09:15:06;9.57;;;1.63;;
23159;SDS011;11748;50.844;4.396;2024-02-23T09:17:33;9.55;;;2.08;;
23159;SDS011;11748;50.844;4.396;2024-02-23T09:19:59;8.95;;;2.08;;
23159;SDS011;11748;50.844;4.396;2024-02-23T09:22:26;6.10;;;1.70;;
23159;SDS011;11748;50.844;4.396;2024-02-23T09:24:52;10.32;;;2.30;;
23159;SDS011;11748;50.844;4.396;2024-02-23T09:27:20;6.43;;;1.63;;
23159;SDS011;11748;50.844;4.396;2024-02-23T09:29:46;7.40;;;1.70;;
23159;SDS011;11748;50.844;4.396;2024-02-23T09:32:11;12.98;;;1.80;;
23159;SDS011;11748;50.844;4.396;2024-02-23T09:34:38;4.85;;;1.48;;
23159;SDS011;11748;50.844;4.396;2024-02-23T09:37:04;7.70;;;1.58;;
23159;SDS011;11748;50.844;4.396;2024-02-23T09:39:29;6.18;;;1.63;;
23159;SDS011;11748;50.844;4.396;2024-02-23T09:41:56;4.35;;;1.38;;
23159;SDS011;11748;50.844;4.396;2024-02-23T09:44:26;8.30;;;1.42;;
23159;SDS011;11748;50.844;4.396;2024-02-23T09:46:57;4.25;;;1.70;;
23159;SDS011;11748;50.844;4.396;2024-02-23T09:49:23;5.95;;;1.95;;
23159;SDS011;11748;50.844;4.396;2024-02-23T09:51:49;6.57;;;1.58;;
23159;SDS011;11748;50.844;4.396;2024-02-23T09:54:15;7.53;;;1.80;;
23159;SDS011;11748;50.844;4.396;2024-02-23T09:56:40;6.78;;;2.17;;
23159;SDS011;11748;50.844;4.396;2024-02-23T09:59:07;8.38;;;2.00;;
23159;SDS011;11748;50.844;4.396;2024-02-23T10:01:32;8.82;;;1.98;;
23159;SDS011;11748;50.844;4.396;2024-02-23T10:03:59;7.40;;;2.03;;
23159;SDS011;11748;50.844;4.396;2024-02-23T10:06:26;5.32;;;1.83;;
23159;SDS011;11748;50.844;4.396;2024-02-23T10:08:52;10.90;;;2.10;;
23159;SDS011;11748;50.844;4.396;2024-02-23T10:11:22;8.60;;;2.17;;
23159;SDS011;11748;50.844;4.396;2024-02-23T10:13:49;5.50;;;2.15;;
23159;SDS011;11748;50.844;4.396;2024-02-23T10:16:16;7.28;;;2.03;;
23159;SDS011;11748;50.844;4.396;2024-02-23T10:18:42;5.25;;;1.85;;
23159;SDS011;11748;50.844;4.396;2024-02-23T10:21:08;5.55;;;2.10;;
23159;SDS011;11748;50.844;4.396;2024-02-23T10:23:33;6.13;;;1.70;;
23159;SDS011;11748;50.844;4.396;2024-02-23T10:26:00;8.65;;;1.85;;
23159;SDS011;11748;50.844;4.396;2024-02-23T10:28:26;6.05;;;1.88;;
23159;SDS011;11748;50.844;4.396;2024-02-23T10:30:52;8.38;;;1.80;;
23159;SDS011;11748;50.844;4.396;2024-02-23T10:33:19;5.75;;;1.70;;
23159;SDS011;11748;50.844;4.396;2024-02-23T10:35:48;8.80;;;1.50;;
23159;SDS011;11748;50.844;4.396;2024-02-23T10:38:20;4.65;;;1.63;;
23159;SDS011;11748;50.844;4.396;2024-02-23T10:40:47;7.85;;;1.88;;
23159;SDS011;11748;50.844;4.396;2024-02-23T10:43:16;7.85;;;1.67;;
23159;SDS011;11748;50.844;4.396;2024-02-23T10:45:44;5.63;;;1.38;;
23159;SDS011;11748;50.844;4.396;2024-02-23T10:48:11;7.90;;;2.03;;
23159;SDS011;11748;50.844;4.396;2024-02-23T10:50:37;5.60;;;1.70;;
23159;SDS011;11748;50.844;4.396;2024-02-23T10:53:04;7.63;;;1.90;;
23159;SDS011;11748;50.844;4.396;2024-02-23T10:55:33;3.70;;;1.58;;
23159;SDS011;11748;50.844;4.396;2024-02-23T10:58:03;9.13;;;1.73;;
23159;SDS011;11748;50.844;4.396;2024-02-23T11:00:33;6.47;;;1.80;;
23159;SDS011;11748;50.844;4.396;2024-02-23T11:03:01;8.00;;;2.13;;
23159;SDS011;11748;50.844;4.396;2024-02-23T11:05:28;5.55;;;1.75;;
23159;SDS011;11748;50.844;4.396;2024-02-23T11:07:57;7.28;;;1.95;;
23159;SDS011;11748;50.844;4.396;2024-02-23T11:10:23;9.65;;;2.05;;
23159;SDS011;11748;50.844;4.396;2024-02-23T11:13:02;6.85;;;1.88;;
23159;SDS011;11748;50.844;4.396;2024-02-23T11:15:33;6.68;;;1.85;;
23159;SDS011;11748;50.844;4.396;2024-02-23T11:18:04;7.88;;;2.30;;
23159;SDS011;11748;50.844;4.396;2024-02-23T11:20:53;8.75;;;1.80;;
23159;SDS011;11748;50.844;4.396;2024-02-23T11:23:19;5.82;;;1.65;;
23159;SDS011;11748;50.844;4.396;2024-02-23T11:26:04;7.07;;;1.40;;
23159;SDS011;11748;50.844;4.396;2024-02-23T11:28:31;5.97;;;1.85;;
23159;SDS011;11748;50.844;4.396;2024-02-23T11:30:57;8.82;;;2.55;;
23159;SDS011;11748;50.844;4.396;2024-02-23T11:33:28;7.10;;;2.42;;
23159;SDS011;11748;50.844;4.396;2024-02-23T11:36:04;5.75;;;2.47;;
23159;SDS011;11748;50.844;4.396;2024-02-23T11:38:32;8.63;;;2.42;;
23159;SDS011;11748;50.844;4.396;2024-02-23T11:40:59;6.43;;;2.00;;
23159;SDS011;11748;50.844;4.396;2024-02-23T11:43:26;5.18;;;1.83;;
23159;SDS011;11748;50.844;4.396;2024-02-23T11:45:52;6.93;;;1.75;;
23159;SDS011;11748;50.844;4.396;2024-02-23T11:48:18;8.77;;;2.13;;
23159;SDS011;11748;50.844;4.396;2024-02-23T11:50:44;6.78;;;1.90;;
23159;SDS011;11748;50.844;4.396;2024-02-23T11:53:10;5.82;;;2.35;;
23159;SDS011;11748;50.844;4.396;2024-02-23T11:55:36;7.22;;;2.08;;
23159;SDS011;11748;50.844;4.396;2024-02-23T11:58:02;5.90;;;1.90;;
23159;SDS011;11748;50.844;4.396;2024-02-23T12:00:28;4.05;;;2.17;;
23159;SDS011;11748;50.844;4.396;2024-02-23T12:02:56;3.38;;;1.50;;
23159;SDS011;11748;50.844;4.396;2024-02-23T12:05:22;8.02;;;2.58;;
23159;SDS011;11748;50.844;4.396;2024-02-23T12:07:47;6.78;;;2.00;;
23159;SDS011;11748;50.844;4.396;2024-02-23T12:10:13;4.50;;;1.85;;
23159;SDS011;11748;50.844;4.396;2024-02-23T12:12:39;5.75;;;1.83;;
23159;SDS011;11748;50.844;4.396;2024-02-23T12:15:05;3.38;;;1.65;;
23159;SDS011;11748;50.844;4.396;2024-02-23T12:17:31;5.90;;;2.15;;
23159;SDS011;11748;50.844;4.396;2024-02-23T12:20:00;5.57;;;2.00;;
23159;SDS011;11748;50.844;4.396;2024-02-23T12:22:26;6.93;;;2.40;;
23159;SDS011;11748;50.844;4.396;2024-02-23T12:24:52;6.65;;;2.25;;
23159;SDS011;11748;50.844;4.396;2024-02-23T12:27:19;7.53;;;2.70;;
23159;SDS011;11748;50.844;4.396;2024-02-23T12:29:53;6.63;;;2.30;;
23159;SDS011;11748;50.844;4.396;2024-02-23T12:32:19;6.45;;;2.10;;
23159;SDS011;11748;50.844;4.396;2024-02-23T12:34:46;9.57;;;2.33;;
23159;SDS011;11748;50.844;4.396;2024-02-23T12:37:14;5.75;;;2.67;;
23159;SDS011;11748;50.844;4.396;2024-02-23T12:39:41;5.45;;;1.90;;
23159;SDS011;11748;50.844;4.396;2024-02-23T12:42:07;13.80;;;2.15;;
23159;SDS011;11748;50.844;4.396;2024-02-23T12:44:33;4.93;;;1.70;;
23159;SDS011;11748;50.844;4.396;2024-02-23T12:46:58;8.32;;;2.03;;
23159;SDS011;11748;50.844;4.396;2024-02-23T12:49:24;5.05;;;1.67;;
23159;SDS011;11748;50.844;4.396;2024-02-23T12:51:50;6.93;;;1.92;;
23159;SDS011;11748;50.844;4.396;2024-02-23T12:54:15;6.43;;;1.90;;
23159;SDS011;11748;50.844;4.396;2024-02-23T12:56:41;8.35;;;2.30;;
23159;SDS011;11748;50.844;4.396;2024-02-23T12:59:07;4.28;;;1.88;;
23159;SDS011;11748;50.844;4.396;2024-02-23T13:01:34;6.50;;;1.77;;
23159;SDS011;11748;50.844;4.396;2024-02-23T13:04:02;7.43;;;2.25;;
23159;SDS011;11748;50.844;4.396;2024-02-23T13:06:34;5.05;;;1.38;;
23159;SDS011;11748;50.844;4.396;2024-02-23T13:09:15;8.30;;;2.05;;
23159;SDS011;11748;50.844;4.396;2024-02-23T13:11:44;3.70;;;1.13;;
23159;SDS011;11748;50.844;4.396;2024-02-23T13:14:12;5.60;;;1.35;;
23159;SDS011;11748;50.844;4.396;2024-02-23T13:16:38;7.50;;;1.50;;
23159;SDS011;11748;50.844;4.396;2024-02-23T13:19:03;7.72;;;1.38;;
23159;SDS011;11748;50.844;4.396;2024-02-23T13:21:29;4.13;;;1.38;;
23159;SDS011;11748;50.844;4.396;2024-02-23T13:23:57;5.32;;;1.30;;
23159;SDS011;11748;50.844;4.396;2024-02-23T13:26:25;5.07;;;1.48;;
23159;SDS011;11748;50.844;4.396;2024-02-23T13:28:50;3.92;;;1.33;;
23159;SDS011;11748;50.844;4.396;2024-02-23T13:31:16;6.85;;;1.42;;
23159;SDS011;11748;50.844;4.396;2024-02-23T13:33:42;4.70;;;1.73;;
23159;SDS011;11748;50.844;4.396;2024-02-23T13:36:08;5.05;;;1.20;;
23159;SDS011;11748;50.844;4.396;2024-02-23T13:41:05;4.20;;;1.50;;
23159;SDS011;11748;50.844;4.396;2024-02-23T13:43:31;4.55;;;1.20;;
23159;SDS011;11748;50.844;4.396;2024-02-23T13:45:58;5.70;;;1.40;;
23159;SDS011;11748;50.844;4.396;2024-02-23T13:48:24;6.25;;;1.35;;
23159;SDS011;11748;50.844;4.396;2024-02-23T13:50:50;5.95;;;1.30;;
23159;SDS011;11748;50.844;4.396;2024-02-23T13:53:15;6.60;;;1.60;;
23159;SDS011;11748;50.844;4.396;2024-02-23T13:55:41;5.05;;;1.17;;
23159;SDS011;11748;50.844;4.396;2024-02-23T13:58:09;4.75;;;1.25;;
23159;SDS011;11748;50.844;4.396;2024-02-23T14:00:35;8.27;;;1.67;;
23159;SDS011;11748;50.844;4.396;2024-02-23T14:03:00;5.15;;;1.13;;
23159;SDS011;11748;50.844;4.396;2024-02-23T14:05:26;2.95;;;1.30;;
23159;SDS011;11748;50.844;4.396;2024-02-23T14:07:53;2.88;;;0.98;;
23159;SDS011;11748;50.844;4.396;2024-02-23T14:10:20;5.03;;;1.20;;
23159;SDS011;11748;50.844;4.396;2024-02-23T14:12:45;3.58;;;1.00;;
23159;SDS011;11748;50.844;4.396;2024-02-23T14:15:11;5.55;;;1.20;;
23159;SDS011;11748;50.844;4.396;2024-02-23T14:17:40;6.85;;;1.30;;
23159;SDS011;11748;50.844;4.396;2024-02-23T14:20:06;7.85;;;1.50;;
23159;SDS011;11748;50.844;4.396;2024-02-23T14:22:33;3.15;;;1.00;;
23159;SDS011;11748;50.844;4.396;2024-02-23T14:24:59;6.30;;;1.30;;
23159;SDS011;11748;50.844;4.396;2024-02-23T14:27:24;5.68;;;1.38;;
23159;SDS011;11748;50.844;4.396;2024-02-23T14:29:52;5.90;;;1.17;;
23159;SDS011;11748;50.844;4.396;2024-02-23T14:32:17;3.22;;;1.05;;
23159;SDS011;11748;50.844;4.396;2024-02-23T14:34:43;3.22;;;1.23;;
23159;SDS011;11748;50.844;4.396;2024-02-23T14:37:10;3.50;;;0.93;;
23159;SDS011;11748;50.844;4.396;2024-02-23T14:39:36;4.78;;;1.40;;
23159;SDS011;11748;50.844;4.396;2024-02-23T14:42:03;3.17;;;1.10;;
23159;SDS011;11748;50.844;4.396;2024-02-23T14:44:29;3.70;;;1.00;;
23159;SDS011;11748;50.844;4.396;2024-02-23T14:46:55;4.82;;;1.02;;
23159;SDS011;11748;50.844;4.396;2024-02-23T14:49:20;3.65;;;1.55;;
23159;SDS011;11748;50.844;4.396;2024-02-23T14:51:47;3.38;;;0.98;;
23159;SDS011;11748;50.844;4.396;2024-02-23T14:54:13;3.13;;;0.73;;
23159;SDS011;11748;50.844;4.396;2024-02-23T14:56:40;3.38;;;1.00;;
23159;SDS011;11748;50.844;4.396;2024-02-23T14:59:07;4.85;;;1.00;;
23159;SDS011;11748;50.844;4.396;2024-02-23T15:01:38;2.17;;;0.73;;